Time;durP1;ratioP1;P1;durP2;ratioP2;P2;SDS_P1;SDS_P2;PMS_P1;PMS_P2;Temp;Humidity;BMP_temperature;BMP_pressure;BME280_temperature;BME280_humidity;BME280_pressure;Samples;Min_cycle;Max_cycle;Signal;HPM_P1;HPM_P2
2022/05/30 00:02:15;;;;;;;6.50;5.97;;;;;;;9.41;88.16;101078.06;4994480;28;20440;-46
2022/05/30 00:04:42;;;;;;;7.27;6.30;;;;;;;9.40;88.30;101074.63;4994678;28;20443;-47
2022/05/30 00:07:10;;;;;;;6.60;5.87;;;;;;;9.42;87.97;101069.94;4994142;28;21057;-49
2022/05/30 00:09:38;;;;;;;8.63;5.83;;;;;;;9.35;86.70;101074.31;4994761;28;20434;-48
2022/05/30 00:12:06;;;;;;;7.03;6.33;;;;;;;9.33;87.07;101068.34;4994577;28;20437;-46
2022/05/30 00:14:35;;;;;;;9.20;6.37;;;;;;;9.29;87.24;101067.03;4994549;28;21110;-46
2022/05/30 00:17:02;;;;;;;8.17;5.93;;;;;;;9.32;87.89;101074.66;4993832;28;20985;-47
2022/05/30 00:19:31;;;;;;;7.63;7.03;;;;;;;9.42;88.07;101072.59;4994646;28;20810;-46
2022/05/30 00:21:59;;;;;;;6.63;6.10;;;;;;;9.48;87.57;101075.53;4994214;28;20536;-44
2022/05/30 00:24:27;;;;;;;10.47;5.90;;;;;;;9.42;86.33;101072.59;4994468;28;20438;-44
2022/05/30 00:26:54;;;;;;;8.10;6.20;;;;;;;9.47;86.51;101076.56;4994019;28;20476;-48
2022/05/30 00:29:22;;;;;;;6.87;6.00;;;;;;;9.45;86.64;101074.06;4994205;28;20434;-46
2022/05/30 00:31:50;;;;;;;14.40;6.77;;;;;;;9.45;86.72;101074.06;5032430;22;20480;-42
2022/05/30 00:34:20;;;;;;;8.67;6.40;;;;;;;9.51;86.65;101067.19;5033449;28;20958;-43
2022/05/30 00:36:49;;;;;;;8.60;6.10;;;;;;;9.53;86.44;101070.50;5033217;28;20877;-41
2022/05/30 00:39:17;;;;;;;9.50;7.00;;;;;;;9.56;86.59;101073.59;5033631;28;20447;-46
2022/05/30 00:41:45;;;;;;;6.73;6.03;;;;;;;9.53;86.75;101068.66;5033047;28;20449;-43
2022/05/30 00:44:13;;;;;;;6.27;5.60;;;;;;;9.51;86.71;101062.69;5033620;28;20967;-42
2022/05/30 00:46:40;;;;;;;12.03;7.30;;;;;;;9.53;87.02;101058.00;5033053;28;20479;-43
2022/05/30 00:49:11;;;;;;;11.30;6.07;;;;;;;9.55;86.77;101060.50;5033548;28;20857;-42
2022/05/30 00:51:42;;;;;;;6.73;6.13;;;;;;;9.52;86.44;101066.19;5032989;28;20562;-45
2022/05/30 00:54:21;;;;;;;8.87;6.10;;;;;;;9.47;86.54;101072.03;5033114;28;20424;-43
2022/05/30 00:56:53;;;;;;;7.33;6.73;;;;;;;9.51;87.01;101068.00;5032950;28;20456;-42
2022/05/30 00:59:21;;;;;;;6.73;6.33;;;;;;;9.54;87.31;101056.16;5033230;28;20420;-44
2022/05/30 01:01:49;;;;;;;7.90;6.63;;;;;;;9.53;87.36;101054.53;5032816;28;20462;-44
2022/05/30 01:07:08;;;;;;;7.77;6.67;;;;;;;9.51;86.98;101046.72;5032707;28;20988;-41
2022/05/30 01:09:40;;;;;;;6.77;6.17;;;;;;;9.52;86.84;101053.69;5033077;28;20511;-43
2022/05/30 01:12:10;;;;;;;6.47;5.90;;;;;;;9.53;86.87;101043.88;5033016;28;20486;-45
2022/05/30 01:14:40;;;;;;;6.63;6.00;;;;;;;9.51;86.38;101044.03;5033749;28;20434;-43
2022/05/30 01:17:11;;;;;;;6.37;5.97;;;;;;;9.53;86.40;101043.88;5032603;28;20495;-42
2022/05/30 01:19:55;;;;;;;15.33;6.77;;;;;;;9.52;86.15;101045.72;5033472;28;20435;-41
2022/05/30 01:22:55;;;;;;;7.33;6.40;;;;;;;9.51;86.40;101045.88;5032501;28;20456;-43
2022/05/30 01:25:56;;;;;;;7.83;6.50;;;;;;;9.49;86.51;101045.25;5032707;28;20955;-44
2022/05/30 01:28:38;;;;;;;6.43;6.03;;;;;;;9.51;86.62;101051.19;5032245;28;20478;-42
2022/05/30 01:31:06;;;;;;;8.50;6.73;;;;;;;9.51;86.90;101045.88;5032120;28;20858;-41
2022/05/30 01:33:34;;;;;;;7.20;6.70;;;;;;;9.49;87.07;101045.25;5032480;28;20424;-43
2022/05/30 01:36:02;;;;;;;10.67;7.00;;;;;;;9.50;87.38;101049.56;5031963;28;20428;-43
2022/05/30 01:38:30;;;;;;;8.90;6.13;;;;;;;9.49;86.99;101050.56;5032525;28;20432;-44
2022/05/30 01:40:59;;;;;;;6.87;6.27;;;;;;;9.48;87.54;101041.75;5032104;28;20459;-43
2022/05/30 01:43:27;;;;;;;6.97;6.60;;;;;;;9.49;87.46;101045.25;5032349;28;20434;-43
2022/05/30 01:45:56;;;;;;;7.07;6.47;;;;;;;9.48;87.57;101043.56;5031965;28;20440;-46
2022/05/30 01:48:24;;;;;;;7.77;7.10;;;;;;;9.44;87.35;101043.94;5032231;28;20471;-47
2022/05/30 01:50:52;;;;;;;6.87;6.40;;;;;;;9.44;87.67;101051.94;5032117;28;20463;-42
2022/05/30 01:53:20;;;;;;;7.50;7.03;;;;;;;9.44;87.84;101054.59;5032277;28;20439;-41
2022/05/30 01:55:47;;;;;;;7.00;6.60;;;;;;;9.44;88.17;101051.94;5031880;28;20444;-43
2022/05/30 01:58:15;;;;;;;8.10;6.97;;;;;;;9.43;87.96;101054.78;5032271;28;20427;-47
2022/05/30 02:00:43;;;;;;;7.60;6.63;;;;;;;9.48;88.48;101056.88;5031659;28;20540;-42
2022/05/30 02:03:12;;;;;;;7.20;6.60;;;;;;;9.50;88.24;101057.56;5031910;28;20432;-45
2022/05/30 02:05:40;;;;;;;6.90;6.43;;;;;;;9.48;88.23;101052.41;5032059;28;20470;-42
2022/05/30 02:08:08;;;;;;;6.73;6.33;;;;;;;9.47;88.00;101049.94;5031542;28;20471;-42
2022/05/30 02:10:36;;;;;;;9.87;7.20;;;;;;;9.47;88.22;101052.59;5031706;28;20428;-44
2022/05/30 02:13:06;;;;;;;7.30;6.90;;;;;;;9.48;88.54;101044.41;5032043;28;20971;-42
2022/05/30 02:17:00;;;;;;;6.80;6.00;;;;;;;9.51;88.47;101051.19;5032136;28;20796;-45
2022/05/30 02:18:23;;;;;;;7.10;6.50;;;;;;;9.53;88.16;101039.34;5031805;28;20586;-42
2022/05/30 02:20:51;;;;;;;8.07;7.40;;;;;;;9.53;88.30;101044.69;5031880;28;20966;-44
2022/05/30 02:23:18;;;;;;;7.17;6.77;;;;;;;9.53;88.04;101034.03;5032072;28;20789;-42
2022/05/30 02:25:46;;;;;;;6.80;6.50;;;;;;;9.54;88.17;101045.50;5031467;28;20802;-45
2022/05/30 02:28:14;;;;;;;10.80;7.40;;;;;;;9.52;87.98;101042.22;5032088;28;20472;-42
2022/05/30 02:30:41;;;;;;;9.93;6.57;;;;;;;9.54;88.34;101041.03;5031438;28;20452;-43
2022/05/30 02:38:41;;;;;;;8.17;7.30;;;;;;;9.62;88.46;101045.41;5031858;28;20439;-44
2022/05/30 02:41:09;;;;;;;7.83;7.20;;;;;;;9.62;88.33;101045.41;5032221;28;20463;-47
2022/05/30 02:43:37;;;;;;;8.60;6.80;;;;;;;9.62;88.12;101048.09;5035702;28;20432;-49
2022/05/30 02:46:04;;;;;;;7.00;6.60;;;;;;;9.65;88.35;101037.06;5035204;28;20458;-46
2022/05/30 02:48:32;;;;;;;7.30;6.80;;;;;;;9.65;88.18;101048.56;5035754;28;20594;-41
2022/05/30 02:51:01;;;;;;;9.07;7.77;;;;;;;9.67;88.19;101038.56;5035128;28;20463;-42
2022/05/30 02:53:28;;;;;;;12.03;7.73;;;;;;;9.68;88.08;101042.03;5035602;28;20428;-45
2022/05/30 02:55:57;;;;;;;7.70;7.03;;;;;;;9.67;88.08;101040.41;5035105;28;20428;-43
2022/05/30 02:58:25;;;;;;;6.40;5.93;;;;;;;9.69;88.32;101041.84;5035242;28;20443;-44
2022/05/30 03:00:52;;;;;;;8.30;7.40;;;;;;;9.71;88.26;101041.66;5034965;28;20456;-42
2022/05/30 03:03:20;;;;;;;7.83;7.27;;;;;;;9.73;88.17;101042.31;5035222;28;20432;-42
2022/05/30 03:05:48;;;;;;;7.87;7.23;;;;;;;9.73;88.28;101039.66;5034989;28;20435;-45
2022/05/30 03:08:17;;;;;;;7.50;7.00;;;;;;;9.76;88.22;101044.63;5035331;28;20471;-46
2022/05/30 03:10:44;;;;;;;7.20;6.53;;;;;;;9.77;88.00;101036.44;5034994;28;20448;-43
2022/05/30 03:13:12;;;;;;;7.83;7.13;;;;;;;9.77;88.10;101040.94;5035261;28;20432;-41
2022/05/30 03:15:39;;;;;;;12.83;7.13;;;;;;;9.79;88.75;101038.94;5035009;28;20428;-43
2022/05/30 03:18:08;;;;;;;6.60;6.10;;;;;;;9.80;88.09;101043.22;5033736;28;20458;-45
2022/05/30 03:20:37;;;;;;;7.60;6.90;;;;;;;9.80;88.17;101040.56;5026756;28;20948;-44
2022/05/30 03:23:05;;;;;;;7.93;7.30;;;;;;;9.82;87.99;101046.56;5034990;28;20431;-43
2022/05/30 03:25:34;;;;;;;7.80;6.73;;;;;;;9.84;87.95;101052.50;5034952;28;20801;-44
2022/05/30 03:28:02;;;;;;;6.87;6.57;;;;;;;9.80;87.50;101049.38;5034183;28;20478;-42
2022/05/30 03:30:36;;;;;;;8.07;7.10;;;;;;;9.81;87.43;101058.19;5034205;28;20519;-44
2022/05/30 03:33:05;;;;;;;7.67;7.07;;;;;;;9.80;87.45;101056.53;5026567;28;20490;-44
2022/05/30 03:35:32;;;;;;;7.43;6.93;;;;;;;9.83;87.95;101059.66;5034668;28;20454;-43
2022/05/30 03:38:01;;;;;;;6.40;5.90;;;;;;;9.86;87.87;101056.63;5034319;28;20815;-44
2022/05/30 03:40:28;;;;;;;6.90;6.30;;;;;;;9.90;88.03;101060.59;5034505;28;20430;-42
2022/05/30 03:42:58;;;;;;;7.13;6.63;;;;;;;9.86;87.29;101067.28;5034436;28;20805;-43
2022/05/30 03:45:26;;;;;;;7.57;6.87;;;;;;;9.87;87.63;101068.13;5034754;28;21007;-46
2022/05/30 03:47:53;;;;;;;7.40;6.90;;;;;;;9.89;87.90;101061.59;5033990;28;20470;-44
2022/05/30 03:50:24;;;;;;;8.00;7.40;;;;;;;9.92;88.19;101057.72;5034140;28;20424;-46
2022/05/30 03:53:04;;;;;;;7.47;6.93;;;;;;;9.98;88.63;101067.66;5034162;28;20451;-43
2022/05/30 03:55:34;;;;;;;8.70;7.27;;;;;;;10.06;88.75;101064.91;5034371;28;20971;-45
2022/05/30 03:58:04;;;;;;;7.97;7.50;;;;;;;10.12;88.55;101066.84;5033715;28;20464;-46
2022/05/30 04:00:33;;;;;;;7.37;6.87;;;;;;;10.16;88.32;101067.28;5034085;28;20502;-43
2022/05/30 04:03:02;;;;;;;7.10;6.60;;;;;;;10.20;88.16;101071.25;5034186;28;20853;-43
2022/05/30 04:05:30;;;;;;;7.60;6.90;;;;;;;10.21;87.80;101072.91;5033978;28;20440;-42
2022/05/30 04:07:58;;;;;;;7.33;6.63;;;;;;;10.23;87.46;101073.56;5033552;28;20535;-43
2022/05/30 04:10:26;;;;;;;7.37;6.90;;;;;;;10.29;87.64;101078.97;5033732;28;20443;-44
2022/05/30 04:13:00;;;;;;;8.37;7.57;;;;;;;10.34;87.72;101081.06;5034124;28;20436;-42
2022/05/30 04:15:29;;;;;;;7.40;6.80;;;;;;;10.41;87.76;101081.97;5033918;28;20929;-41
2022/05/30 04:17:57;;;;;;;7.70;7.30;;;;;;;10.44;87.51;101079.75;5033377;28;20487;-48
2022/05/30 04:20:24;;;;;;;7.27;6.67;;;;;;;10.49;87.37;101082.69;5033707;28;20431;-43
2022/05/30 04:22:52;;;;;;;9.27;7.53;;;;;;;10.54;87.17;101074.94;5033959;28;20442;-42
2022/05/30 04:25:20;;;;;;;8.30;7.50;;;;;;;10.62;87.18;101078.53;5033720;28;20925;-45
2022/05/30 04:27:48;;;;;;;8.37;7.53;;;;;;;10.64;86.64;101074.66;5033202;28;20551;-43
2022/05/30 04:30:17;;;;;;;9.20;7.00;;;;;;;10.70;86.91;101065.88;5033424;28;20476;-43
2022/05/30 04:32:47;;;;;;;7.00;6.60;;;;;;;10.76;86.76;101064.28;5025083;28;20444;-46
2022/05/30 04:35:16;;;;;;;7.30;7.00;;;;;;;10.80;86.28;101070.91;5033441;28;20481;-42
2022/05/30 04:37:45;;;;;;;7.30;6.80;;;;;;;10.82;85.62;101076.88;5033158;28;20460;-45
2022/05/30 04:40:17;;;;;;;8.10;7.70;;;;;;;10.86;85.64;101080.81;5033374;28;20427;-46
2022/05/30 04:42:45;;;;;;;7.87;7.07;;;;;;;10.91;85.44;101083.75;5033385;28;20494;-46
2022/05/30 04:45:14;;;;;;;7.30;7.00;;;;;;;10.95;85.13;101077.84;5033342;28;20428;-43
2022/05/30 04:47:42;;;;;;;7.60;6.70;;;;;;;10.96;84.72;101082.16;5032630;28;20810;-45
2022/05/30 04:50:15;;;;;;;7.00;6.60;;;;;;;10.98;84.51;101080.13;5033228;28;20476;-42
2022/05/30 04:52:45;;;;;;;7.43;6.80;;;;;;;11.00;84.10;101071.94;5033242;28;20870;-45
2022/05/30 04:55:15;;;;;;;7.23;6.73;;;;;;;11.07;84.47;101080.84;5033179;28;20435;-41
2022/05/30 04:57:43;;;;;;;6.90;6.47;;;;;;;11.15;84.40;101083.38;5032413;28;20557;-44
2022/05/30 05:00:13;;;;;;;7.70;7.10;;;;;;;11.23;83.97;101088.56;5032817;28;20428;-44
2022/05/30 05:02:41;;;;;;;8.33;7.67;;;;;;;11.27;83.93;101089.84;5032963;28;20467;-43
2022/05/30 05:05:10;;;;;;;7.83;7.33;;;;;;;11.31;83.50;101096.44;5032037;28;20526;-44
2022/05/30 05:07:44;;;;;;;7.63;7.00;;;;;;;11.37;82.77;101095.69;5032533;28;20464;-44
2022/05/30 05:10:28;;;;;;;7.20;6.90;;;;;;;11.51;82.64;101097.44;5032645;28;20479;-45
2022/05/30 05:12:56;;;;;;;6.93;6.40;;;;;;;11.55;81.63;101098.69;5033082;28;20446;-46
2022/05/30 05:15:24;;;;;;;9.17;8.27;;;;;;;11.64;80.82;101088.69;5032901;28;20432;-42
2022/05/30 05:17:51;;;;;;;8.50;7.80;;;;;;;11.84;81.95;101094.19;5032140;28;20463;-43
2022/05/30 05:20:23;;;;;;;10.20;6.87;;;;;;;11.90;80.06;101094.22;5032435;28;20520;-45
2022/05/30 05:22:52;;;;;;;8.27;7.67;;;;;;;11.82;77.44;101097.06;5032604;28;20440;-45
2022/05/30 05:25:20;;;;;;;7.90;6.73;;;;;;;11.86;76.90;101108.16;5032729;28;20796;-42
2022/05/30 05:27:49;;;;;;;6.17;5.83;;;;;;;11.84;76.08;101100.38;5032082;28;21012;-42
2022/05/30 05:30:18;;;;;;;6.77;6.33;;;;;;;11.81;75.51;101102.59;5032121;28;20977;-42
2022/05/30 05:32:46;;;;;;;6.90;6.20;;;;;;;11.88;76.23;101106.97;5024102;28;20444;-47
2022/05/30 05:35:14;;;;;;;5.90;5.60;;;;;;;11.86;74.67;101105.50;5032347;28;20434;-41
2022/05/30 05:37:41;;;;;;;6.10;5.70;;;;;;;11.87;74.67;101105.31;5031995;28;20551;-42
2022/05/30 05:40:12;;;;;;;7.13;6.53;;;;;;;11.87;74.89;101112.50;5032316;28;20432;-48
2022/05/30 05:42:40;;;;;;;6.20;5.87;;;;;;;11.93;75.67;101107.19;5032448;28;20967;-45
2022/05/30 05:45:09;;;;;;;7.23;6.53;;;;;;;11.87;73.90;101109.81;5032312;28;20428;-44
2022/05/30 05:47:37;;;;;;;6.60;6.20;;;;;;;11.92;74.76;101110.88;5031736;28;20466;-46
2022/05/30 05:50:06;;;;;;;6.00;5.47;;;;;;;11.99;74.58;101110.94;5032092;28;20468;-46
2022/05/30 05:52:33;;;;;;;6.60;6.00;;;;;;;12.01;74.73;101114.22;5031970;28;20554;-44
2022/05/30 05:55:01;;;;;;;5.67;5.37;;;;;;;12.07;74.19;101111.59;5032293;28;20434;-45
2022/05/30 05:57:30;;;;;;;7.07;6.00;;;;;;;12.19;73.88;101122.56;5031737;28;20494;-44
2022/05/30 05:59:58;;;;;;;6.10;5.80;;;;;;;12.28;73.59;101112.53;5031891;28;20833;-43
2022/05/30 06:02:27;;;;;;;6.07;5.87;;;;;;;12.36;73.10;101123.06;5031574;28;21002;-43
2022/05/30 06:04:55;;;;;;;7.07;6.47;;;;;;;12.61;74.20;101129.53;5031799;28;20470;-44
2022/05/30 06:07:22;;;;;;;6.87;6.20;;;;;;;12.68;71.89;101125.03;5031384;28;20464;-43
2022/05/30 06:09:50;;;;;;;7.40;6.67;;;;;;;12.89;72.84;101132.94;5031775;28;20967;-42
2022/05/30 06:12:18;;;;;;;6.87;6.50;;;;;;;13.07;73.48;101125.16;5031693;28;20825;-42
2022/05/30 06:14:47;;;;;;;6.90;6.27;;;;;;;13.28;73.24;101129.53;5031612;28;20486;-45
2022/05/30 06:17:15;;;;;;;6.77;6.30;;;;;;;13.37;71.12;101125.63;5031291;28;20472;-46
2022/05/30 06:19:43;;;;;;;6.10;5.70;;;;;;;13.57;70.00;101121.09;5031965;28;20436;-44
2022/05/30 06:22:10;;;;;;;6.17;5.57;;;;;;;13.83;69.43;101123.75;5031642;28;20451;-45
2022/05/30 06:24:38;;;;;;;5.50;5.00;;;;;;;13.74;65.26;101124.97;5031721;28;20436;-44
2022/05/30 06:27:07;;;;;;;5.80;5.50;;;;;;;14.03;67.82;101122.88;5031287;28;20814;-42
2022/05/30 06:29:34;;;;;;;5.43;5.10;;;;;;;14.25;66.94;101126.94;5031408;28;20428;-45
2022/05/30 06:32:04;;;;;;;5.63;5.23;;;;;;;14.48;67.50;101131.88;5023756;28;20469;-46
2022/05/30 06:34:32;;;;;;;6.33;5.70;;;;;;;14.64;64.92;101132.19;5031609;28;20424;-45
2022/05/30 06:37:00;;;;;;;6.13;5.70;;;;;;;14.98;65.22;101132.84;5031083;28;21023;-43
2022/05/30 06:39:27;;;;;;;6.03;5.53;;;;;;;15.55;65.04;101130.00;5031789;28;20428;-48
2022/05/30 06:41:55;;;;;;;5.80;5.30;;;;;;;15.93;63.91;101132.53;5031213;28;20452;-44
2022/05/30 06:44:22;;;;;;;5.57;5.10;;;;;;;16.42;62.38;101132.44;5031357;28;20447;-45
2022/05/30 06:46:50;;;;;;;5.93;5.43;;;;;;;16.78;60.57;101134.28;5041589;22;20461;-52
2022/05/30 06:49:20;;;;;;;6.47;5.87;;;;;;;17.02;58.06;101133.28;5011697;28;20446;-46
2022/05/30 06:51:48;;;;;;;6.53;6.13;;;;;;;17.43;59.39;101134.34;5011419;28;20468;-48
2022/05/30 06:54:15;;;;;;;5.50;5.07;;;;;;;16.96;53.77;101136.09;5011798;28;20440;-50
2022/05/30 06:58:12;;;;;;;4.30;4.00;;;;;;;17.26;55.05;101136.06;5002978;28;20473;-52
2022/05/30 06:59:33;;;;;;;3.90;3.70;;;;;;;18.18;53.45;101144.25;4992121;28;20438;-50
2022/05/30 07:02:01;;;;;;;3.70;3.33;;;;;;;18.63;49.17;101136.34;4991931;28;20437;-49
2022/05/30 07:04:32;;;;;;;3.20;2.90;;;;;;;18.92;46.81;101137.16;4991987;28;20541;-51
2022/05/30 07:07:03;;;;;;;4.60;3.23;;;;;;;19.91;50.00;101138.31;4991585;28;20982;-49
2022/05/30 07:09:30;;;;;;;3.10;2.80;;;;;;;20.19;49.04;101132.75;4991935;28;20791;-46
2022/05/30 07:11:58;;;;;;;6.17;2.90;;;;;;;19.56;43.42;101140.47;4991660;28;21044;-50
2022/05/30 07:14:26;;;;;;;2.93;2.73;;;;;;;19.01;48.14;101149.22;4991991;28;20437;-48
2022/05/30 07:16:54;;;;;;;2.87;2.73;;;;;;;18.40;48.42;101152.53;4991501;28;20557;-47
2022/05/30 07:19:21;;;;;;;2.87;2.70;;;;;;;17.86;49.78;101148.38;4991854;28;20524;-48
2022/05/30 07:21:50;;;;;;;3.40;3.27;;;;;;;16.59;50.69;101154.19;4991638;28;20448;-51
2022/05/30 07:24:18;;;;;;;3.83;3.53;;;;;;;15.96;51.87;101151.75;4992029;28;20442;-51
2022/05/30 07:26:46;;;;;;;4.70;3.90;;;;;;;15.57;53.95;101152.09;4991698;28;20480;-49
2022/05/30 07:29:13;;;;;;;3.97;3.77;;;;;;;15.17;56.16;101159.56;4995682;28;20434;-51
2022/05/30 07:31:41;;;;;;;3.97;3.77;;;;;;;14.50;57.72;101153.94;4994998;28;20469;-52
2022/05/30 07:34:09;;;;;;;4.23;3.97;;;;;;;14.01;59.26;101155.25;4995215;28;20433;-48
2022/05/30 07:36:37;;;;;;;5.10;4.80;;;;;;;14.00;61.73;101160.84;4995018;28;20466;-49
2022/05/30 07:39:06;;;;;;;5.77;5.27;;;;;;;13.94;62.93;101159.00;4995397;28;20444;-49
2022/05/30 07:41:33;;;;;;;6.57;6.13;;;;;;;13.81;64.83;101157.97;4995162;28;20433;-48
2022/05/30 07:44:01;;;;;;;7.10;6.33;;;;;;;13.69;65.64;101165.00;4995307;28;20532;-47
2022/05/30 07:46:28;;;;;;;7.90;6.47;;;;;;;13.66;65.92;101154.69;4994607;28;20474;-49
2022/05/30 07:48:56;;;;;;;6.87;6.47;;;;;;;13.53;66.36;101168.06;4995026;28;20434;-48
2022/05/30 07:51:24;;;;;;;8.00;6.37;;;;;;;13.49;67.89;101171.38;4995164;28;20478;-48
2022/05/30 07:53:51;;;;;;;7.13;6.93;;;;;;;13.45;68.32;101176.31;4995403;28;20457;-46
2022/05/30 07:56:20;;;;;;;7.03;6.73;;;;;;;13.26;68.62;101180.59;4994595;28;20496;-49
2022/05/30 07:58:48;;;;;;;6.80;6.50;;;;;;;13.16;68.52;101174.84;4995136;28;20521;-46
2022/05/30 08:01:18;;;;;;;7.37;6.97;;;;;;;12.88;69.81;101179.44;4994575;28;20962;-48
2022/05/30 08:03:47;;;;;;;7.03;6.77;;;;;;;12.45;71.10;101176.19;4994836;28;20994;-45
2022/05/30 08:06:17;;;;;;;7.17;6.77;;;;;;;12.41;72.31;101171.44;4994390;28;20466;-45
2022/05/30 08:08:45;;;;;;;7.50;7.07;;;;;;;12.32;73.49;101176.13;4994882;28;20434;-46
2022/05/30 08:11:15;;;;;;;6.27;5.90;;;;;;;12.26;73.49;101181.44;4994683;28;20843;-45
2022/05/30 08:13:45;;;;;;;5.90;5.70;;;;;;;12.42;74.22;101181.13;4994552;28;20430;-44
2022/05/30 08:16:16;;;;;;;6.90;6.23;;;;;;;12.51;73.12;101177.25;4994297;28;20466;-46
2022/05/30 08:19:04;;;;;;;6.97;6.30;;;;;;;12.60;73.53;101182.22;4994477;28;20445;-45
2022/05/30 08:21:36;;;;;;;6.10;5.70;;;;;;;12.84;73.79;101174.72;4994310;28;20955;-48
2022/05/30 08:24:03;;;;;;;7.10;6.80;;;;;;;13.04;73.61;101181.78;4994624;28;20430;-45
2022/05/30 08:26:31;;;;;;;6.83;6.23;;;;;;;13.34;72.86;101184.97;4993782;28;20480;-46
2022/05/30 08:29:00;;;;;;;7.37;6.70;;;;;;;13.71;72.91;101170.97;4994519;28;20434;-46
2022/05/30 08:31:27;;;;;;;6.60;6.23;;;;;;;14.03;70.76;101173.84;4991350;28;20474;-45
2022/05/30 08:33:55;;;;;;;7.27;6.53;;;;;;;14.36;68.96;101172.78;4989164;28;20426;-44
2022/05/30 08:36:23;;;;;;;7.00;6.60;;;;;;;14.78;67.08;101170.56;4993679;28;20475;-48
2022/05/30 08:41:46;;;;;;;6.90;6.57;;;;;;;15.13;66.21;101173.66;4992885;28;20426;-51
2022/05/30 08:41:49;;;;;;;6.70;6.30;;;;;;;15.56;64.09;101169.25;4994095;28;20440;-47
2022/05/30 08:44:18;;;;;;;6.13;5.90;;;;;;;15.73;61.58;101170.38;4994082;28;20926;-47
2022/05/30 08:46:53;;;;;;;6.13;5.63;;;;;;;15.87;60.76;101166.53;4993587;28;20473;-51
2022/05/30 08:49:26;;;;;;;5.90;5.63;;;;;;;15.98;59.19;101176.53;4994172;28;20457;-48
2022/05/30 08:52:25;;;;;;;5.30;5.10;;;;;;;16.25;59.20;101173.59;4993656;28;21171;-46
2022/05/30 08:55:05;;;;;;;5.17;4.97;;;;;;;16.51;58.03;101182.22;4993590;28;20440;-45
2022/05/30 08:57:44;;;;;;;4.60;4.40;;;;;;;16.83;57.64;101176.69;4993471;28;20462;-50
2022/05/30 09:00:19;;;;;;;5.53;4.73;;;;;;;16.99;55.42;101178.75;4993719;28;20434;-47
2022/05/30 09:02:52;;;;;;;4.47;4.27;;;;;;;17.02;56.12;101179.09;4993767;28;20440;-49
2022/05/30 09:05:25;;;;;;;4.90;4.53;;;;;;;17.15;54.17;101180.78;4993630;28;20433;-48
2022/05/30 09:08:22;;;;;;;4.57;4.17;;;;;;;17.22;55.03;101186.91;4993314;28;20460;-49
2022/05/30 09:10:55;;;;;;;4.20;3.83;;;;;;;17.32;55.84;101189.06;4993260;28;20429;-46
2022/05/30 09:13:30;;;;;;;4.20;3.97;;;;;;;17.50;54.83;101191.69;4993758;28;20441;-50
2022/05/30 09:16:05;;;;;;;4.67;4.00;;;;;;;17.39;52.90;101190.59;4993252;28;20839;-48
2022/05/30 09:18:40;;;;;;;5.13;4.60;;;;;;;16.94;52.67;101190.19;4993290;28;20429;-51
2022/05/30 09:21:08;;;;;;;4.23;3.87;;;;;;;16.96;52.25;101188.13;4993303;28;20452;-50
2022/05/30 09:23:36;;;;;;;4.47;3.40;;;;;;;17.13;53.53;101191.00;4993474;28;20437;-51
2022/05/30 09:26:07;;;;;;;3.67;3.47;;;;;;;17.38;51.92;101198.94;4993014;28;20465;-49
2022/05/30 09:28:39;;;;;;;3.57;3.27;;;;;;;17.42;52.82;101197.41;4993235;28;20856;-50
2022/05/30 09:31:17;;;;;;;4.20;4.00;;;;;;;17.25;51.22;101204.50;4993146;28;20437;-50
2022/05/30 09:33:47;;;;;;;3.90;3.70;;;;;;;17.25;51.13;101199.94;4985303;28;20429;-51
2022/05/30 09:36:19;;;;;;;4.17;3.70;;;;;;;17.26;51.65;101204.28;4992774;28;20468;-46
2022/05/30 09:38:49;;;;;;;3.23;3.10;;;;;;;17.22;49.31;101205.78;4993139;28;20437;-49
2022/05/30 09:41:21;;;;;;;3.70;3.50;;;;;;;17.38;50.72;101202.44;4992886;28;20438;-46
2022/05/30 09:43:54;;;;;;;4.20;4.00;;;;;;;17.28;48.41;101196.78;4992989;28;20437;-50
2022/05/30 09:46:30;;;;;;;4.37;3.40;;;;;;;16.92;46.90;101197.69;4992665;28;20468;-47
2022/05/30 09:49:08;;;;;;;3.87;3.47;;;;;;;17.20;48.80;101199.81;4992938;28;20957;-45
2022/05/30 09:51:41;;;;;;;3.40;3.20;;;;;;;17.48;48.94;101199.19;4992169;28;20804;-47
2022/05/30 09:54:11;;;;;;;3.17;2.97;;;;;;;17.65;49.10;101198.31;4993045;28;20520;-47
2022/05/30 09:56:43;;;;;;;3.27;3.17;;;;;;;17.68;50.82;101194.34;4992592;28;20466;-46
2022/05/30 09:59:31;;;;;;;3.40;3.20;;;;;;;17.70;46.40;101194.94;4992890;28;20429;-44
2022/05/30 10:02:00;;;;;;;3.80;3.60;;;;;;;17.66;47.01;101199.13;4992487;28;20433;-48
2022/05/30 10:04:46;;;;;;;3.93;3.63;;;;;;;17.61;47.98;101199.03;4992504;28;20871;-47
2022/05/30 10:07:17;;;;;;;2.90;2.80;;;;;;;17.89;47.25;101196.47;4992230;28;20461;-44
2022/05/30 10:09:54;;;;;;;3.53;3.23;;;;;;;17.85;44.74;101202.56;4992726;28;20934;-44
2022/05/30 10:12:30;;;;;;;3.00;2.90;;;;;;;17.89;47.80;101199.16;4992339;28;20477;-48
2022/05/30 10:14:58;;;;;;;2.83;2.73;;;;;;;18.52;47.58;101196.59;4992776;28;20435;-47
2022/05/30 10:17:32;;;;;;;3.83;2.83;;;;;;;18.70;44.46;101190.19;4992026;28;21005;-49
2022/05/30 10:20:03;;;;;;;2.90;2.67;;;;;;;18.50;43.83;101189.78;4992639;28;20436;-47
2022/05/30 10:28:52;;;;;;;2.33;2.23;;;;;;;18.95;43.68;101187.19;4992434;28;20922;-50
2022/05/30 10:31:32;;;;;;;2.97;2.77;;;;;;;18.83;44.64;101189.13;4987321;28;20446;-47
2022/05/30 10:34:25;;;;;;;3.10;2.90;;;;;;;18.72;44.58;101199.72;4987912;28;20513;-50
2022/05/30 10:37:16;;;;;;;2.67;2.50;;;;;;;18.53;44.78;101200.94;4991997;28;20466;-45
2022/05/30 10:39:56;;;;;;;2.60;2.40;;;;;;;18.09;44.04;101199.66;4992287;28;20436;-47
2022/05/30 10:42:28;;;;;;;2.73;2.50;;;;;;;18.13;43.08;101206.22;4992058;28;20930;-47
2022/05/30 10:45:10;;;;;;;3.73;2.43;;;;;;;18.11;45.47;101207.50;4992418;28;20433;-50
2022/05/30 10:47:40;;;;;;;2.47;2.30;;;;;;;18.12;46.51;101209.16;4991624;28;20531;-48
2022/05/30 10:50:17;;;;;;;2.13;2.03;;;;;;;17.48;43.54;101204.56;4992120;28;20434;-48
2022/05/30 10:52:51;;;;;;;2.30;2.20;;;;;;;17.56;46.17;101210.47;4992270;28;20477;-48
2022/05/30 10:55:23;;;;;;;2.80;2.03;;;;;;;17.54;44.20;101207.22;4992219;28;20433;-46
2022/05/30 10:57:56;;;;;;;2.20;2.10;;;;;;;17.58;46.00;101205.69;4991879;28;20470;-43
2022/05/30 11:00:29;;;;;;;2.33;2.23;;;;;;;17.78;45.55;101209.94;4991778;28;20429;-44
2022/05/30 11:03:11;;;;;;;2.43;2.27;;;;;;;18.27;45.05;101205.97;4994257;28;20930;-46
2022/05/30 11:05:46;;;;;;;2.50;2.30;;;;;;;18.45;45.07;101206.69;4996060;28;20540;-49
2022/05/30 11:08:22;;;;;;;3.00;2.80;;;;;;;18.32;44.84;101208.78;4995813;28;20472;-49
2022/05/30 11:10:56;;;;;;;2.50;2.30;;;;;;;17.68;44.40;101210.53;4995577;28;20429;-46
2022/05/30 11:13:35;;;;;;;2.50;2.40;;;;;;;17.72;45.42;101213.56;4995843;28;20477;-45
2022/05/30 11:16:07;;;;;;;2.47;2.37;;;;;;;17.69;45.41;101212.97;4995464;28;20463;-44
2022/05/30 11:18:42;;;;;;;3.20;2.70;;;;;;;17.60;45.78;101222.47;4995748;28;20434;-48
2022/05/30 11:21:20;;;;;;;3.33;3.00;;;;;;;17.27;49.84;101229.34;4995567;28;20433;-45
2022/05/30 11:23:48;;;;;;;3.20;3.10;;;;;;;16.69;49.38;101229.91;4996062;28;20426;-44
2022/05/30 11:26:46;;;;;;;3.03;2.87;;;;;;;16.44;49.45;101238.00;4995229;28;20486;-46
2022/05/30 11:29:31;;;;;;;3.00;2.90;;;;;;;16.26;48.99;101234.44;4994869;28;20437;-46
2022/05/30 11:32:03;;;;;;;3.43;3.13;;;;;;;15.96;49.94;101235.13;4995180;28;20444;-48
2022/05/30 11:34:57;;;;;;;3.33;3.13;;;;;;;15.86;52.77;101234.78;4995248;28;20935;-46
2022/05/30 11:37:58;;;;;;;3.83;3.60;;;;;;;15.25;55.56;101239.13;4994818;28;20465;-46
2022/05/30 11:40:33;;;;;;;3.30;3.07;;;;;;;15.31;54.19;101239.09;4995436;28;20430;-43
2022/05/30 11:43:30;;;;;;;3.73;3.43;;;;;;;15.43;56.55;101241.91;4995537;28;20437;-49
2022/05/30 11:46:08;;;;;;;4.00;3.80;;;;;;;15.47;56.07;101246.66;4994627;28;20528;-46
2022/05/30 11:48:44;;;;;;;4.10;3.90;;;;;;;15.37;55.29;101248.13;4995242;28;20437;-43
2022/05/30 11:51:23;;;;;;;3.80;3.50;;;;;;;15.42;57.49;101245.63;4995052;28;20815;-47
2022/05/30 11:54:26;;;;;;;3.73;3.63;;;;;;;15.51;57.36;101252.41;4995136;28;20481;-46
2022/05/30 11:57:07;;;;;;;3.07;2.97;;;;;;;15.69;54.85;101246.31;4987735;28;20983;-44
2022/05/30 11:59:52;;;;;;;6.47;4.03;;;;;;;15.76;54.23;101249.78;4995127;28;20433;-47
2022/05/30 12:02:27;;;;;;;3.23;2.93;;;;;;;15.72;54.39;101252.06;4994772;28;20801;-44